<?xml version="1.0" encoding="UTF-8" standalone="no" ?>
<gpx xmlns="http://www.topografix.com/GPX/1/1" xmlns:xsi="http://www.w3.org/2001/XMLSchema-instance" xsi:schemaLocation="http://www.topografix.com/GPX/1/1 http://www.topografix.com/GPX/1/1/gpx.xsd" version="1.1" creator="VisuGPX - https://www.visugpx.com">
  <metadata>
    <name>Caro_5Fontaines_20km</name>
    <desc><![CDATA[gnerando idor: 8058289]]></desc>
  </metadata>
  <trk>
    <name><![CDATA[Caro_5Fontaines_20km-8058289]]></name>
    <extensions>
      <line xmlns="http://www.topografix.com/GPX/gpx_style/0/2">
        <color>0000FF</color>
        <width>4</width>
      </line>
    </extensions>
    <trkseg>
      <trkpt lat="47.86428" lon="-2.32603">
        <ele>117</ele>
        <time>2023-10-31T19:49:27Z</time>
      </trkpt>
      <trkpt lat="47.86273" lon="-2.32573">
        <ele>113</ele>
        <time>2023-10-31T19:52:56Z</time>
      </trkpt>
      <trkpt lat="47.86339" lon="-2.31985">
        <ele>110</ele>
        <time>2023-10-31T20:01:49Z</time>
      </trkpt>
      <trkpt lat="47.86394" lon="-2.31886">
        <ele>110</ele>
        <time>2023-10-31T20:03:44Z</time>
      </trkpt>
      <trkpt lat="47.8631" lon="-2.31552">
        <ele>93</ele>
        <time>2023-10-31T20:09:04Z</time>
      </trkpt>
      <trkpt lat="47.86385" lon="-2.31024">
        <ele>79</ele>
        <time>2023-10-31T20:17:07Z</time>
      </trkpt>
      <trkpt lat="47.86535" lon="-2.30543">
        <ele>70</ele>
        <time>2023-10-31T20:25:02Z</time>
      </trkpt>
      <trkpt lat="47.86613" lon="-2.30384">
        <ele>56</ele>
        <time>2023-10-31T20:27:58Z</time>
      </trkpt>
      <trkpt lat="47.86826" lon="-2.30389">
        <ele>60</ele>
        <time>2023-10-31T20:32:42Z</time>
      </trkpt>
      <trkpt lat="47.86923" lon="-2.30749">
        <ele>64</ele>
        <time>2023-10-31T20:38:30Z</time>
      </trkpt>
      <trkpt lat="47.87016" lon="-2.30899">
        <ele>61</ele>
        <time>2023-10-31T20:41:33Z</time>
      </trkpt>
      <trkpt lat="47.87168" lon="-2.30861">
        <ele>61</ele>
        <time>2023-10-31T20:44:58Z</time>
      </trkpt>
      <trkpt lat="47.87332" lon="-2.30775">
        <ele>57</ele>
        <time>2023-10-31T20:48:50Z</time>
      </trkpt>
      <trkpt lat="47.87704" lon="-2.30702">
        <ele>59</ele>
        <time>2023-10-31T20:57:11Z</time>
      </trkpt>
      <trkpt lat="47.87643" lon="-2.30813">
        <ele>57</ele>
        <time>2023-10-31T20:59:19Z</time>
      </trkpt>
      <trkpt lat="47.87646" lon="-2.30968">
        <ele>59</ele>
        <time>2023-10-31T21:01:38Z</time>
      </trkpt>
      <trkpt lat="47.87911" lon="-2.30861">
        <ele>62</ele>
        <time>2023-10-31T21:07:45Z</time>
      </trkpt>
      <trkpt lat="47.8804" lon="-2.30908">
        <ele>72</ele>
        <time>2023-10-31T21:10:42Z</time>
      </trkpt>
      <trkpt lat="47.88305" lon="-2.30805">
        <ele>67</ele>
        <time>2023-10-31T21:16:47Z</time>
      </trkpt>
      <trkpt lat="47.8834" lon="-2.30886">
        <ele>70</ele>
        <time>2023-10-31T21:18:13Z</time>
      </trkpt>
      <trkpt lat="47.88627" lon="-2.31067">
        <ele>72</ele>
        <time>2023-10-31T21:25:09Z</time>
      </trkpt>
      <trkpt lat="47.88636" lon="-2.31286">
        <ele>82</ele>
        <time>2023-10-31T21:28:26Z</time>
      </trkpt>
      <trkpt lat="47.88737" lon="-2.31629">
        <ele>86</ele>
        <time>2023-10-31T21:34:01Z</time>
      </trkpt>
      <trkpt lat="47.89045" lon="-2.31612">
        <ele>83</ele>
        <time>2023-10-31T21:40:52Z</time>
      </trkpt>
      <trkpt lat="47.89157" lon="-2.31633">
        <ele>82</ele>
        <time>2023-10-31T21:43:23Z</time>
      </trkpt>
      <trkpt lat="47.89307" lon="-2.31672">
        <ele>83</ele>
        <time>2023-10-31T21:46:46Z</time>
      </trkpt>
      <trkpt lat="47.89387" lon="-2.31908">
        <ele>83</ele>
        <time>2023-10-31T21:50:43Z</time>
      </trkpt>
      <trkpt lat="47.89442" lon="-2.32037">
        <ele>81</ele>
        <time>2023-10-31T21:52:59Z</time>
      </trkpt>
      <trkpt lat="47.89922" lon="-2.32208">
        <ele>85</ele>
        <time>2023-10-31T22:03:58Z</time>
      </trkpt>
      <trkpt lat="47.89894" lon="-2.32768">
        <ele>85</ele>
        <time>2023-10-31T22:12:20Z</time>
      </trkpt>
      <trkpt lat="47.89937" lon="-2.32283">
        <ele>85</ele>
        <time>2023-10-31T22:19:38Z</time>
      </trkpt>
      <trkpt lat="47.89994" lon="-2.32335">
        <ele>86</ele>
        <time>2023-10-31T22:21:07Z</time>
      </trkpt>
      <trkpt lat="47.90012" lon="-2.32403">
        <ele>87</ele>
        <time>2023-10-31T22:22:13Z</time>
      </trkpt>
      <trkpt lat="47.90167" lon="-2.32502">
        <ele>91</ele>
        <time>2023-10-31T22:25:58Z</time>
      </trkpt>
      <trkpt lat="47.90193" lon="-2.32747">
        <ele>89</ele>
        <time>2023-10-31T22:29:40Z</time>
      </trkpt>
      <trkpt lat="47.90386" lon="-2.32876">
        <ele>85</ele>
        <time>2023-10-31T22:34:22Z</time>
      </trkpt>
      <trkpt lat="47.90506" lon="-2.33004">
        <ele>88</ele>
        <time>2023-10-31T22:37:39Z</time>
      </trkpt>
      <trkpt lat="47.90544" lon="-2.33352">
        <ele>96</ele>
        <time>2023-10-31T22:42:54Z</time>
      </trkpt>
      <trkpt lat="47.90552" lon="-2.33596">
        <ele>97</ele>
        <time>2023-10-31T22:46:33Z</time>
      </trkpt>
      <trkpt lat="47.90187" lon="-2.33545">
        <ele>91</ele>
        <time>2023-10-31T22:54:42Z</time>
      </trkpt>
      <trkpt lat="47.90187" lon="-2.33403">
        <ele>90</ele>
        <time>2023-10-31T22:56:49Z</time>
      </trkpt>
      <trkpt lat="47.89971" lon="-2.33356">
        <ele>92</ele>
        <time>2023-10-31T23:01:40Z</time>
      </trkpt>
      <trkpt lat="47.89974" lon="-2.3324">
        <ele>89</ele>
        <time>2023-10-31T23:03:24Z</time>
      </trkpt>
      <trkpt lat="47.89917" lon="-2.33142">
        <ele>88</ele>
        <time>2023-10-31T23:05:20Z</time>
      </trkpt>
      <trkpt lat="47.89436" lon="-2.33122">
        <ele>91</ele>
        <time>2023-10-31T23:16:02Z</time>
      </trkpt>
      <trkpt lat="47.89307" lon="-2.33139">
        <ele>96</ele>
        <time>2023-10-31T23:18:55Z</time>
      </trkpt>
      <trkpt lat="47.89203" lon="-2.33118">
        <ele>99</ele>
        <time>2023-10-31T23:21:15Z</time>
      </trkpt>
      <trkpt lat="47.8918" lon="-2.33414">
        <ele>102</ele>
        <time>2023-10-31T23:25:42Z</time>
      </trkpt>
      <trkpt lat="47.89094" lon="-2.34039">
        <ele>101</ele>
        <time>2023-10-31T23:35:13Z</time>
      </trkpt>
      <trkpt lat="47.8897" lon="-2.34004">
        <ele>105</ele>
        <time>2023-10-31T23:38:01Z</time>
      </trkpt>
      <trkpt lat="47.88976" lon="-2.34163">
        <ele>103</ele>
        <time>2023-10-31T23:40:24Z</time>
      </trkpt>
      <trkpt lat="47.89016" lon="-2.34305">
        <ele>100</ele>
        <time>2023-10-31T23:42:41Z</time>
      </trkpt>
      <trkpt lat="47.88979" lon="-2.34639">
        <ele>96</ele>
        <time>2023-10-31T23:47:44Z</time>
      </trkpt>
      <trkpt lat="47.88895" lon="-2.34893">
        <ele>100</ele>
        <time>2023-10-31T23:51:58Z</time>
      </trkpt>
      <trkpt lat="47.89186" lon="-2.34953">
        <ele>87</ele>
        <time>2023-10-31T23:58:30Z</time>
      </trkpt>
      <trkpt lat="47.89275" lon="-2.3506">
        <ele>83</ele>
        <time>2023-11-01T00:01:02Z</time>
      </trkpt>
      <trkpt lat="47.89505" lon="-2.35232">
        <ele>75</ele>
        <time>2023-11-01T00:06:46Z</time>
      </trkpt>
      <trkpt lat="47.89663" lon="-2.35717">
        <ele>72</ele>
        <time>2023-11-01T00:14:48Z</time>
      </trkpt>
      <trkpt lat="47.89614" lon="-2.35747">
        <ele>71</ele>
        <time>2023-11-01T00:15:59Z</time>
      </trkpt>
      <trkpt lat="47.89261" lon="-2.35626">
        <ele>78</ele>
        <time>2023-11-01T00:24:02Z</time>
      </trkpt>
      <trkpt lat="47.89004" lon="-2.35558">
        <ele>83</ele>
        <time>2023-11-01T00:29:50Z</time>
      </trkpt>
      <trkpt lat="47.8874" lon="-2.35528">
        <ele>94</ele>
        <time>2023-11-01T00:35:44Z</time>
      </trkpt>
      <trkpt lat="47.8876" lon="-2.35296">
        <ele>93</ele>
        <time>2023-11-01T00:39:13Z</time>
      </trkpt>
      <trkpt lat="47.8861" lon="-2.35236">
        <ele>98</ele>
        <time>2023-11-01T00:42:40Z</time>
      </trkpt>
      <trkpt lat="47.8855" lon="-2.35021">
        <ele>103</ele>
        <time>2023-11-01T00:46:09Z</time>
      </trkpt>
      <trkpt lat="47.88452" lon="-2.34991">
        <ele>106</ele>
        <time>2023-11-01T00:48:22Z</time>
      </trkpt>
      <trkpt lat="47.8853" lon="-2.34614">
        <ele>108</ele>
        <time>2023-11-01T00:54:15Z</time>
      </trkpt>
      <trkpt lat="47.884" lon="-2.34491">
        <ele>121</ele>
        <time>2023-11-01T00:57:41Z</time>
      </trkpt>
      <trkpt lat="47.8838" lon="-2.3438">
        <ele>123</ele>
        <time>2023-11-01T00:59:24Z</time>
      </trkpt>
      <trkpt lat="47.88391" lon="-2.34234">
        <ele>123</ele>
        <time>2023-11-01T01:01:35Z</time>
      </trkpt>
      <trkpt lat="47.8836" lon="-2.33818">
        <ele>120</ele>
        <time>2023-11-01T01:07:50Z</time>
      </trkpt>
      <trkpt lat="47.88343" lon="-2.33723">
        <ele>118</ele>
        <time>2023-11-01T01:09:18Z</time>
      </trkpt>
      <trkpt lat="47.88083" lon="-2.33478">
        <ele>94</ele>
        <time>2023-11-01T01:16:08Z</time>
      </trkpt>
      <trkpt lat="47.88262" lon="-2.33333">
        <ele>106</ele>
        <time>2023-11-01T01:20:40Z</time>
      </trkpt>
      <trkpt lat="47.88374" lon="-2.33152">
        <ele>109</ele>
        <time>2023-11-01T01:24:20Z</time>
      </trkpt>
      <trkpt lat="47.88406" lon="-2.32981">
        <ele>110</ele>
        <time>2023-11-01T01:26:59Z</time>
      </trkpt>
      <trkpt lat="47.88409" lon="-2.32865">
        <ele>108</ele>
        <time>2023-11-01T01:28:43Z</time>
      </trkpt>
      <trkpt lat="47.88256" lon="-2.32736">
        <ele>90</ele>
        <time>2023-11-01T01:32:38Z</time>
      </trkpt>
      <trkpt lat="47.88055" lon="-2.32672">
        <ele>78</ele>
        <time>2023-11-01T01:37:12Z</time>
      </trkpt>
      <trkpt lat="47.8777" lon="-2.32577">
        <ele>67</ele>
        <time>2023-11-01T01:43:42Z</time>
      </trkpt>
      <trkpt lat="47.87758" lon="-2.32431">
        <ele>66</ele>
        <time>2023-11-01T01:45:53Z</time>
      </trkpt>
      <trkpt lat="47.87427" lon="-2.32436">
        <ele>61</ele>
        <time>2023-11-01T01:53:15Z</time>
      </trkpt>
      <trkpt lat="47.87105" lon="-2.32393">
        <ele>81</ele>
        <time>2023-11-01T02:00:26Z</time>
      </trkpt>
      <trkpt lat="47.8709" lon="-2.32461">
        <ele>83</ele>
        <time>2023-11-01T02:01:31Z</time>
      </trkpt>
      <trkpt lat="47.86849" lon="-2.32406">
        <ele>108</ele>
        <time>2023-11-01T02:06:56Z</time>
      </trkpt>
      <trkpt lat="47.86817" lon="-2.32268">
        <ele>107</ele>
        <time>2023-11-01T02:09:07Z</time>
      </trkpt>
      <trkpt lat="47.86696" lon="-2.32217">
        <ele>111</ele>
        <time>2023-11-01T02:11:54Z</time>
      </trkpt>
      <trkpt lat="47.86581" lon="-2.32067">
        <ele>109</ele>
        <time>2023-11-01T02:15:18Z</time>
      </trkpt>
      <trkpt lat="47.86443" lon="-2.31976">
        <ele>111</ele>
        <time>2023-11-01T02:18:40Z</time>
      </trkpt>
      <trkpt lat="47.86454" lon="-2.32152">
        <ele>114</ele>
        <time>2023-11-01T02:21:18Z</time>
      </trkpt>
      <trkpt lat="47.86431" lon="-2.32612">
        <ele>116</ele>
        <time>2023-11-01T02:28:11Z</time>
      </trkpt>
    </trkseg>
  </trk>
</gpx>